4V0

Rangely Airport

Rangely, Colorado, USA
METAR K4V0 172315Z AUTO 07021G28KT 10SM OVC080 01/M05 A3010 RMK AO2 T00061046
Observed Flight Rules
Nov-17 @ 23:15 UTC (21 minutes ago) Visual Flight Rules
Wind Visibility Clouds
70° at 21 knots
 Gusting to 28 knots
10 miles
  • Overcast at 8,000' AGL
Temperatures Readings
Current 1°C / 34°F
Dewpoint -5°C / 23°F
Humidity 65%
Altimeter 30.1" Hg
Pressure 1019 hPa
Elevation 1608
METAR K4V0 172315Z AUTO 07021G28KT 10SM OVC080 01/M05 A3010 RMK AO2 T00061046
Observed Flight Rules
Nov-17 @ 23:15 UTC
(21 minutes ago)
VFR
Wind Visibility
70° at 21 knots
 Gusting to 28 knots
10 miles
Clouds
  • Overcast at 8,000' AGL
Temperature Dewpoint
1°C / 34°F -5°C / 23°F
Humidity Altimeter Pressure
65% 30.1" Hg 1019 hPa